Time;durP1;ratioP1;P1;durP2;ratioP2;P2;SDS_P1;SDS_P2;PMS_P1;PMS_P2;Temp;Humidity;BMP_temperature;BMP_pressure;BME280_temperature;BME280_humidity;BME280_pressure;Samples;Min_cycle;Max_cycle;Signal;HPM_P1;HPM_P2
2022/09/19 00:03:23;;;;;;;;;;;;;;;6.65;100.00;96283.50;10390002;28;97038;-60
2022/09/19 00:08:26;;;;;;;;;;;;;;;6.53;100.00;96284.47;10372243;28;97414;-60
2022/09/19 00:13:30;;;;;;;;;;;;;;;6.44;100.00;96273.88;10388207;27;97237;-60
2022/09/19 00:18:33;;;;;;;;;;;;;;;6.35;100.00;96276.38;10407854;28;97155;-59
2022/09/19 00:28:57;;;;;;;;;;;;;;;6.05;100.00;96276.06;10373240;28;96674;-59
2022/09/19 00:34:00;;;;;;;;;;;;;;;5.92;100.00;96280.53;10362558;28;96827;-59
2022/09/19 00:39:03;;;;;;;;;;;;;;;5.83;100.00;96281.25;10372508;28;96822;-60
2022/09/19 00:44:27;;;;;;;;;;;;;;;5.79;100.00;96279.81;10373820;28;96782;-59
2022/09/19 00:49:32;;;;;;;;;;;;;;;5.69;100.00;96274.53;10372274;28;96808;-60
2022/09/19 00:54:40;;;;;;;;;;;;;;;5.58;100.00;96270.13;10372510;28;96700;-60
2022/09/19 00:59:44;;;;;;;;;;;;;;;5.50;100.00;96275.09;10371728;28;96774;-60
2022/09/19 01:04:48;;;;;;;;;;;;;;;5.64;100.00;96267.09;10355193;28;96699;-60
2022/09/19 01:09:54;;;;;;;;;;;;;;;5.55;100.00;96259.19;10343218;28;97080;-60
2022/09/19 01:15:09;;;;;;;;;;;;;;;5.57;100.00;96255.53;10371895;28;96699;-60
2022/09/19 01:20:41;;;;;;;;;;;;;;;5.56;100.00;96266.03;10376852;28;96921;-60
2022/09/19 01:25:50;;;;;;;;;;;;;;;5.41;100.00;96261.06;10381805;28;97196;-60
2022/09/19 01:36:15;;;;;;;;;;;;;;;5.35;100.00;96264.09;10385741;28;96933;-60
2022/09/19 01:41:20;;;;;;;;;;;;;;;5.26;100.00;96257.03;10399083;28;96631;-61
2022/09/19 01:46:27;;;;;;;;;;;;;;;5.20;100.00;96263.50;10394907;28;97001;-60
2022/09/19 01:51:32;;;;;;;;;;;;;;;5.06;100.00;96256.75;10392905;27;96794;-59
2022/09/19 01:56:39;;;;;;;;;;;;;;;5.06;100.00;96261.09;10383911;28;96740;-60
2022/09/19 02:01:48;;;;;;;;;;;;;;;4.86;100.00;96265.16;10378167;28;96823;-60
2022/09/19 02:06:53;;;;;;;;;;;;;;;4.80;100.00;96263.00;10343583;28;98555;-60
2022/09/19 02:11:59;;;;;;;;;;;;;;;4.76;100.00;96264.97;10366566;28;96777;-59
2022/09/19 02:17:06;;;;;;;;;;;;;;;4.68;100.00;96264.69;10377668;28;96924;-59
2022/09/19 02:22:11;;;;;;;;;;;;;;;4.62;100.00;96267.75;10340000;28;97711;-60
2022/09/19 02:27:17;;;;;;;;;;;;;;;4.62;100.00;96267.75;10336803;28;97207;-60
2022/09/19 02:32:21;;;;;;;;;;;;;;;4.68;100.00;96268.13;10336036;28;97070;-60
2022/09/19 02:37:29;;;;;;;;;;;;;;;4.74;100.00;96264.28;10335109;28;96677;-60
2022/09/19 02:42:35;;;;;;;;;;;;;;;4.73;100.00;96265.19;10334577;28;96764;-59
2022/09/19 02:47:44;;;;;;;;;;;;;;;4.71;100.00;96272.25;10335359;28;96679;-60
2022/09/19 02:52:48;;;;;;;;;;;;;;;4.68;100.00;96267.28;10334226;28;97090;-59
2022/09/19 02:57:52;;;;;;;;;;;;;;;4.64;100.00;96265.88;10334825;28;97988;-59
2022/09/19 03:02:59;;;;;;;;;;;;;;;4.62;100.00;96259.97;10336117;28;97121;-60
2022/09/19 03:08:03;;;;;;;;;;;;;;;4.70;100.00;96261.09;10356985;28;97028;-59
2022/09/19 03:13:08;;;;;;;;;;;;;;;4.67;100.00;96260.47;10334207;28;96913;-59
2022/09/19 03:18:14;;;;;;;;;;;;;;;4.58;100.00;96259.38;10338454;28;96764;-59
2022/09/19 03:23:18;;;;;;;;;;;;;;;4.60;100.00;96261.84;10356243;28;96801;-60
2022/09/19 03:28:21;;;;;;;;;;;;;;;4.48;100.00;96260.97;10374824;28;96838;-59
2022/09/19 03:33:26;;;;;;;;;;;;;;;4.47;100.00;96252.41;10368597;28;98484;-60
2022/09/19 03:38:28;;;;;;;;;;;;;;;4.54;100.00;96250.16;10333358;28;97241;-59
2022/09/19 03:43:31;;;;;;;;;;;;;;;4.52;100.00;96249.47;10333751;28;96817;-60
2022/09/19 03:48:36;;;;;;;;;;;;;;;4.42;100.00;96262.25;10338581;28;97089;-60
2022/09/19 03:53:38;;;;;;;;;;;;;;;4.27;100.00;96258.97;10374101;28;96927;-60
2022/09/19 03:58:41;;;;;;;;;;;;;;;4.25;100.00;96254.84;10374515;28;96645;-60
2022/09/19 04:03:45;;;;;;;;;;;;;;;4.32;100.00;96256.06;10365380;28;96900;-59
2022/09/19 04:08:49;;;;;;;;;;;;;;;4.16;100.00;96257.16;10338687;28;97309;-60
2022/09/19 04:13:52;;;;;;;;;;;;;;;4.08;100.00;96259.44;10373686;28;96978;-60
2022/09/19 04:18:56;;;;;;;;;;;;;;;4.04;100.00;96252.00;10363593;28;96757;-59
2022/09/19 04:23:59;;;;;;;;;;;;;;;4.11;100.00;96253.25;10331318;28;96863;-60
2022/09/19 04:29:02;;;;;;;;;;;;;;;4.07;100.00;96255.19;10332298;28;97525;-59
2022/09/19 04:34:06;;;;;;;;;;;;;;;4.05;100.00;96253.66;10334504;28;97151;-59
2022/09/19 04:39:09;;;;;;;;;;;;;;;3.95;100.00;96253.47;10381172;28;96862;-60
2022/09/19 04:44:12;;;;;;;;;;;;;;;3.94;100.00;96251.81;10373168;28;97250;-59
2022/09/19 04:49:16;;;;;;;;;;;;;;;3.89;100.00;96251.31;10371820;28;97068;-60
2022/09/19 04:54:18;;;;;;;;;;;;;;;3.91;100.00;96262.38;10358351;28;96949;-60
2022/09/19 04:59:21;;;;;;;;;;;;;;;3.86;100.00;96264.44;10333459;28;97030;-59
2022/09/19 05:04:26;;;;;;;;;;;;;;;3.81;100.00;96255.25;10360249;28;96861;-59
2022/09/19 05:09:28;;;;;;;;;;;;;;;3.82;100.00;96269.81;10379886;28;96910;-59
2022/09/19 05:14:31;;;;;;;;;;;;;;;3.85;100.00;96265.38;10378138;28;96862;-59
2022/09/19 05:19:36;;;;;;;;;;;;;;;3.81;100.00;96259.59;10388253;28;97235;-60
2022/09/19 05:24:40;;;;;;;;;;;;;;;3.85;100.00;96257.59;10421201;28;96762;-60
2022/09/19 05:29:42;;;;;;;;;;;;;;;3.83;100.00;96268.91;10390419;28;96876;-59
2022/09/19 05:34:46;;;;;;;;;;;;;;;3.79;100.00;96264.03;10383112;28;97030;-60
2022/09/19 05:39:49;;;;;;;;;;;;;;;3.79;100.00;96270.03;10337719;28;97116;-60
2022/09/19 05:44:54;;;;;;;;;;;;;;;3.80;100.00;96282.03;10337163;28;97006;-59
2022/09/19 05:49:58;;;;;;;;;;;;;;;3.92;100.00;96280.34;10355184;28;96766;-60
2022/09/19 05:55:00;;;;;;;;;;;;;;;4.09;100.00;96284.38;10377824;28;96695;-60
2022/09/19 06:00:05;;;;;;;;;;;;;;;4.19;100.00;96294.88;10416113;28;97100;-59
2022/09/19 06:05:09;;;;;;;;;;;;;;;4.22;100.00;96304.19;10377281;28;97134;-60
2022/09/19 06:10:12;;;;;;;;;;;;;;;4.22;100.00;96304.19;10383106;28;97059;-60
2022/09/19 06:15:15;;;;;;;;;;;;;;;4.28;100.00;96306.34;10393053;28;96764;-60
2022/09/19 06:20:19;;;;;;;;;;;;;;;4.43;100.00;96300.09;10393455;28;96764;-60
2022/09/19 06:25:21;;;;;;;;;;;;;;;4.66;100.00;96301.03;10382346;28;96978;-59
2022/09/19 06:30:24;;;;;;;;;;;;;;;4.84;100.00;96298.09;10397600;28;97247;-60
2022/09/19 06:35:29;;;;;;;;;;;;;;;4.93;100.00;96303.41;10386528;28;97218;-60
2022/09/19 06:40:32;;;;;;;;;;;;;;;5.03;100.00;96303.56;10409695;28;97257;-60
2022/09/19 06:45:37;;;;;;;;;;;;;;;5.24;100.00;96300.34;10378006;28;98552;-60
2022/09/19 06:50:44;;;;;;;;;;;;;;;5.33;100.00;96300.47;10376074;28;97230;-60
2022/09/19 06:55:47;;;;;;;;;;;;;;;5.49;100.00;96305.34;10376482;28;97015;-59
2022/09/19 07:00:50;;;;;;;;;;;;;;;5.59;100.00;96307.25;10376822;28;97575;-59
2022/09/19 07:05:59;;;;;;;;;;;;;;;5.77;100.00;96305.03;10350100;28;97045;-59
2022/09/19 07:11:02;;;;;;;;;;;;;;;5.98;100.00;96294.78;10358537;28;98064;-59
2022/09/19 07:16:06;;;;;;;;;;;;;;;6.08;100.00;96296.56;10376260;28;97019;-59
2022/09/19 07:21:10;;;;;;;;;;;;;;;6.26;100.00;96298.69;10347359;28;97192;-60
2022/09/19 07:26:12;;;;;;;;;;;;;;;6.42;100.00;96293.94;10334060;28;97496;-59
2022/09/19 07:31:15;;;;;;;;;;;;;;;6.68;100.00;96298.84;10335201;28;96807;-60
2022/09/19 07:36:21;;;;;;;;;;;;;;;7.16;100.00;96298.47;10333644;28;96879;-60
2022/09/19 07:41:24;;;;;;;;;;;;;;;7.57;100.00;96301.19;10334025;28;96746;-60
2022/09/19 07:46:26;;;;;;;;;;;;;;;7.60;100.00;96301.78;10333581;28;96819;-60
2022/09/19 07:51:30;;;;;;;;;;;;;;;7.65;100.00;96314.41;10364465;28;97244;-60
2022/09/19 07:56:33;;;;;;;;;;;;;;;7.65;100.00;96314.41;10374533;28;97197;-59
2022/09/19 08:01:36;;;;;;;;;;;;;;;7.93;100.00;96312.91;10375488;28;96925;-59
2022/09/19 08:06:40;;;;;;;;;;;;;;;8.31;100.00;96321.00;10342739;28;96721;-59
2022/09/19 08:11:43;;;;;;;;;;;;;;;8.46;100.00;96318.84;10361691;28;96812;-60
2022/09/19 08:16:46;;;;;;;;;;;;;;;8.52;100.00;96323.53;10375028;28;96948;-59
2022/09/19 08:21:51;;;;;;;;;;;;;;;8.80;100.00;96334.97;10341812;28;98703;-60
2022/09/19 08:26:53;;;;;;;;;;;;;;;9.11;100.00;96325.28;10332804;28;96829;-59
2022/09/19 08:31:56;;;;;;;;;;;;;;;9.43;100.00;96334.63;10332899;28;96981;-60
2022/09/19 08:37:00;;;;;;;;;;;;;;;9.69;100.00;96328.03;10341902;28;96798;-60
2022/09/19 08:42:10;;;;;;;;;;;;;;;9.84;100.00;96330.03;10346298;28;97590;-60
2022/09/19 08:47:15;;;;;;;;;;;;;;;10.11;100.00;96328.44;10346999;28;96732;-60
2022/09/19 08:52:25;;;;;;;;;;;;;;;10.33;100.00;96326.47;10384010;28;96944;-60
2022/09/19 08:57:29;;;;;;;;;;;;;;;10.59;100.00;96326.63;10387376;28;97523;-60
2022/09/19 09:02:40;;;;;;;;;;;;;;;10.79;100.00;96324.69;10387571;28;96801;-59
2022/09/19 09:08:09;;;;;;;;;;;;;;;11.02;100.00;96321.69;10346338;28;97167;-60
2022/09/19 09:13:18;;;;;;;;;;;;;;;11.22;100.00;96327.59;10387573;28;96792;-60
2022/09/19 09:18:30;;;;;;;;;;;;;;;11.50;100.00;96317.88;10381725;28;96796;-60
2022/09/19 09:23:36;;;;;;;;;;;;;;;11.63;100.00;96315.69;10345233;28;97750;-60
2022/09/19 09:28:40;;;;;;;;;;;;;;;11.70;100.00;96310.69;10344611;28;96697;-60
2022/09/19 09:33:49;;;;;;;;;;;;;;;11.76;100.00;96304.81;10358495;28;97307;-60
2022/09/19 09:38:57;;;;;;;;;;;;;;;11.91;100.00;96305.09;10360898;28;96792;-60
2022/09/19 09:44:04;;;;;;;;;;;;;;;12.02;100.00;96310.03;10380226;28;97443;-60
2022/09/19 09:49:11;;;;;;;;;;;;;;;12.11;100.00;96298.66;10360009;28;97133;-60
2022/09/19 10:05:14;;;;;;;;;;;;;;;12.56;100.00;96285.41;10362581;28;96883;-60
2022/09/19 10:10:19;;;;;;;;;;;;;;;12.73;100.00;96291.53;10365417;28;96873;-61
2022/09/19 10:15:22;;;;;;;;;;;;;;;12.92;100.00;96285.22;10373769;28;97098;-60
2022/09/19 10:20:32;;;;;;;;;;;;;;;13.09;100.00;96280.81;10353846;28;96896;-61
2022/09/19 10:25:35;;;;;;;;;;;;;;;13.25;100.00;96286.06;10372138;28;96838;-60
2022/09/19 10:30:50;;;;;;;;;;;;;;;13.35;100.00;96281.47;10350482;28;98548;-60
2022/09/19 10:35:58;;;;;;;;;;;;;;;13.48;100.00;96280.16;10375088;28;97187;-60
2022/09/19 10:41:04;;;;;;;;;;;;;;;13.61;100.00;96276.06;10378833;28;96819;-60
2022/09/19 10:46:07;;;;;;;;;;;;;;;13.69;100.00;96284.91;10393482;28;97198;-60
2022/09/19 10:51:12;;;;;;;;;;;;;;;13.70;100.00;96276.06;10376951;28;97433;-60
2022/09/19 10:56:23;;;;;;;;;;;;;;;13.86;100.00;96268.13;10376570;28;96785;-60
2022/09/19 11:01:26;;;;;;;;;;;;;;;13.92;100.00;96271.91;10375242;28;96722;-60
2022/09/19 11:06:29;;;;;;;;;;;;;;;14.07;100.00;96280.75;10379035;28;97802;-60
2022/09/19 11:11:37;;;;;;;;;;;;;;;14.15;100.00;96278.06;10374870;28;98061;-60
2022/09/19 11:16:43;;;;;;;;;;;;;;;14.26;100.00;96279.53;10355391;28;97118;-60
2022/09/19 11:21:54;;;;;;;;;;;;;;;14.33;100.00;96280.53;10372051;28;97053;-60
2022/09/19 11:27:05;;;;;;;;;;;;;;;14.51;100.00;96277.66;10376340;28;96930;-60
2022/09/19 11:32:14;;;;;;;;;;;;;;;14.71;100.00;96288.59;10376414;28;97059;-60
2022/09/19 11:37:43;;;;;;;;;;;;;;;14.67;100.00;96291.72;10335767;28;97001;-60
2022/09/19 11:42:54;;;;;;;;;;;;;;;14.89;100.00;96290.13;10334283;28;97137;-60
2022/09/19 11:48:11;;;;;;;;;;;;;;;15.03;100.00;96288.56;10334801;28;97076;-60
2022/09/19 11:53:29;;;;;;;;;;;;;;;15.05;100.00;96297.09;10334603;28;96798;-60
2022/09/19 11:58:44;;;;;;;;;;;;;;;15.18;100.00;96293.88;10333961;28;96664;-60
2022/09/19 12:03:56;;;;;;;;;;;;;;;15.30;100.00;96274.03;10340418;28;97675;-60
2022/09/19 12:09:10;;;;;;;;;;;;;;;15.46;100.00;96275.72;10373742;28;97059;-60
2022/09/19 12:14:22;;;;;;;;;;;;;;;15.40;100.00;96266.72;10374839;28;96865;-60
2022/09/19 12:19:27;;;;;;;;;;;;;;;15.81;100.00;96274.31;10374154;28;96674;-60
2022/09/19 12:29:58;;;;;;;;;;;;;;;16.06;100.00;96266.16;10374275;28;96759;-60
2022/09/19 12:35:04;;;;;;;;;;;;;;;16.13;99.63;96269.69;10354724;28;97119;-60
2022/09/19 12:40:15;;;;;;;;;;;;;;;16.04;99.92;96270.78;10333886;28;96915;-60
2022/09/19 12:45:22;;;;;;;;;;;;;;;16.08;98.30;96264.13;10332430;28;96758;-60
2022/09/19 12:50:32;;;;;;;;;;;;;;;16.23;98.15;96267.59;10354053;28;97641;-60
2022/09/19 12:55:38;;;;;;;;;;;;;;;16.46;97.22;96271.13;10373119;28;96722;-60
2022/09/19 13:00:44;;;;;;;;;;;;;;;16.70;96.24;96267.38;10373805;28;96877;-61
2022/09/19 13:05:51;;;;;;;;;;;;;;;16.83;95.67;96264.88;10348573;28;96749;-60
2022/09/19 13:11:01;;;;;;;;;;;;;;;16.88;96.42;96270.44;10353924;28;96872;-60
2022/09/19 13:16:08;;;;;;;;;;;;;;;16.93;95.90;96273.31;10373087;28;97472;-60
2022/09/19 13:26:36;;;;;;;;;;;;;;;17.37;93.82;96269.72;10380357;28;97413;-60
2022/09/19 13:31:55;;;;;;;;;;;;;;;17.59;92.30;96269.69;10380749;28;96675;-60
2022/09/19 13:37:04;;;;;;;;;;;;;;;18.02;90.76;96263.53;10344314;28;96749;-60
2022/09/19 13:42:09;;;;;;;;;;;;;;;18.08;90.33;96275.94;10338509;28;97194;-60
2022/09/19 13:47:19;;;;;;;;;;;;;;;18.25;91.16;96265.88;10336792;28;97129;-60
2022/09/19 13:52:25;;;;;;;;;;;;;;;18.01;89.09;96265.34;10337744;28;96768;-59
2022/09/19 13:57:30;;;;;;;;;;;;;;;17.91;88.79;96259.59;10337978;28;97109;-60
2022/09/19 14:02:34;;;;;;;;;;;;;;;18.09;88.92;96246.69;10337515;28;96778;-60
2022/09/19 14:07:45;;;;;;;;;;;;;;;18.22;87.10;96251.25;10377123;28;96793;-60
2022/09/19 14:13:27;;;;;;;;;;;;;;;18.67;84.98;96248.16;10378447;28;97520;-59
2022/09/19 14:18:49;;;;;;;;;;;;;;;18.58;84.35;96249.34;10378192;28;96802;-60
2022/09/19 14:23:57;;;;;;;;;;;;;;;18.42;87.29;96253.97;10379088;28;97079;-60
2022/09/19 14:29:05;;;;;;;;;;;;;;;18.62;85.98;96250.59;10377839;28;96719;-60
2022/09/19 14:34:32;;;;;;;;;;;;;;;19.02;83.52;96250.75;10365980;28;96906;-60
2022/09/19 14:39:46;;;;;;;;;;;;;;;19.00;84.29;96242.19;10335784;28;96709;-60
2022/09/19 14:45:02;;;;;;;;;;;;;;;19.21;84.85;96249.13;10336218;28;97123;-60
2022/09/19 14:50:11;;;;;;;;;;;;;;;19.27;84.49;96252.81;10336357;28;96957;-60
2022/09/19 14:55:22;;;;;;;;;;;;;;;19.47;83.40;96248.38;10336497;28;96740;-59
2022/09/19 15:00:27;;;;;;;;;;;;;;;19.32;84.32;96253.03;10335827;28;97061;-60
2022/09/19 15:05:31;;;;;;;;;;;;;;;19.40;83.73;96247.53;10357783;28;96944;-60
2022/09/19 15:10:37;;;;;;;;;;;;;;;19.18;85.18;96255.66;10376773;28;97119;-60
2022/09/19 15:15:42;;;;;;;;;;;;;;;19.47;83.58;96251.03;10377718;28;96707;-61
2022/09/19 15:20:44;;;;;;;;;;;;;;;19.49;82.54;96253.44;10376618;28;97025;-61
2022/09/19 15:25:48;;;;;;;;;;;;;;;19.36;83.29;96256.91;10376052;28;97474;-60
2022/09/19 15:30:52;;;;;;;;;;;;;;;19.14;84.56;96254.44;10375657;28;97049;-60
2022/09/19 15:35:58;;;;;;;;;;;;;;;18.52;86.29;96250.16;10349996;28;98689;-60
2022/09/19 15:41:05;;;;;;;;;;;;;;;18.18;87.58;96252.63;10334494;28;96964;-60
2022/09/19 15:46:33;;;;;;;;;;;;;;;18.34;86.63;96259.41;10333538;28;97233;-60
2022/09/19 15:51:37;;;;;;;;;;;;;;;18.40;85.92;96257.84;10334549;28;96756;-60
2022/09/19 15:56:45;;;;;;;;;;;;;;;18.59;86.04;96266.88;10334050;28;96936;-60
2022/09/19 16:01:48;;;;;;;;;;;;;;;19.03;83.46;96266.41;10334154;28;97169;-60
2022/09/19 16:12:33;;;;;;;;;;;;;;;18.77;83.80;96263.69;10365619;28;97263;-60
2022/09/19 16:18:00;;;;;;;;;;;;;;;18.32;87.04;96266.72;10333560;28;96980;-60
2022/09/19 16:23:04;;;;;;;;;;;;;;;17.81;87.90;96267.81;10331678;28;97665;-61
2022/09/19 16:28:11;;;;;;;;;;;;;;;17.16;90.23;96273.19;10361945;28;97992;-60
2022/09/19 16:33:14;;;;;;;;;;;;;;;17.11;90.93;96269.44;10372896;28;96749;-60
2022/09/19 16:38:23;;;;;;;;;;;;;;;17.54;87.46;96277.34;10372324;28;96813;-61
2022/09/19 16:43:40;;;;;;;;;;;;;;;17.67;86.46;96274.84;10369289;28;97136;-60
2022/09/19 16:48:43;;;;;;;;;;;;;;;17.45;86.88;96276.69;10370010;28;97067;-60
2022/09/19 16:53:46;;;;;;;;;;;;;;;17.10;89.22;96273.91;10379692;28;96930;-60
2022/09/19 16:58:50;;;;;;;;;;;;;;;16.81;90.94;96274.81;10382201;27;96766;-59
2022/09/19 17:03:52;;;;;;;;;;;;;;;16.49;91.52;96290.03;10373725;28;97226;-60
2022/09/19 17:08:56;;;;;;;;;;;;;;;16.13;94.31;96293.41;10380641;28;96850;-60
2022/09/19 17:14:00;;;;;;;;;;;;;;;15.79;95.16;96301.81;10378587;28;96694;-60
2022/09/19 17:19:02;;;;;;;;;;;;;;;15.40;96.42;96303.59;10373926;28;97503;-60
2022/09/19 17:24:05;;;;;;;;;;;;;;;15.03;97.93;96310.41;10378019;28;97256;-60
2022/09/19 17:29:09;;;;;;;;;;;;;;;14.77;98.78;96307.28;10375197;28;97475;-60
2022/09/19 17:34:13;;;;;;;;;;;;;;;14.55;99.01;96309.69;10370489;28;97389;-60
2022/09/19 17:39:16;;;;;;;;;;;;;;;14.33;99.77;96314.69;10377221;28;96783;-59
2022/09/19 17:44:21;;;;;;;;;;;;;;;14.17;100.00;96314.69;10377908;28;96917;-60
2022/09/19 17:49:25;;;;;;;;;;;;;;;14.02;100.00;96313.75;10376655;28;97078;-59
2022/09/19 17:54:28;;;;;;;;;;;;;;;13.99;100.00;96320.97;10361430;28;97962;-62
2022/09/19 17:59:32;;;;;;;;;;;;;;;13.99;100.00;96330.66;10362335;28;97612;-63
2022/09/19 18:04:35;;;;;;;;;;;;;;;13.93;100.00;96331.31;10372481;28;97157;-61
2022/09/19 18:09:37;;;;;;;;;;;;;;;13.82;100.00;96329.88;10350612;28;97235;-62
2022/09/19 18:19:18;;;;;;;1.45;0.77;;;;;;;14.10;100.00;96332.94;10388967;28;97295;-63
2022/09/19 18:24:21;;;;;;;1.13;0.70;;;;;;;13.65;100.00;96341.34;10367438;28;97048;-63
2022/09/19 18:29:25;;;;;;;1.58;1.05;;;;;;;13.34;100.00;96334.97;10362396;28;97654;-62
2022/09/19 18:34:29;;;;;;;6.32;1.15;;;;;;;13.19;100.00;96342.63;10353901;28;97270;-63
2022/09/19 18:39:32;;;;;;;1.00;0.60;;;;;;;13.08;100.00;96342.13;10368453;28;97453;-63
2022/09/19 18:44:34;;;;;;;1.98;0.75;;;;;;;12.91;100.00;96338.63;10372517;28;97376;-61
2022/09/19 18:49:39;;;;;;;2.25;1.10;;;;;;;12.74;100.00;96343.81;10370047;28;98652;-61
2022/09/19 18:54:42;;;;;;;1.70;0.90;;;;;;;12.61;100.00;96352.13;10357785;28;96792;-61
2022/09/19 18:59:44;;;;;;;1.17;0.50;;;;;;;12.50;100.00;96353.19;10368752;28;97890;-61
2022/09/19 19:04:48;;;;;;;0.95;0.70;;;;;;;12.44;100.00;96356.47;10361824;28;97070;-61
2022/09/19 19:09:51;;;;;;;3.33;0.60;;;;;;;12.34;100.00;96357.56;10370124;28;96791;-61
2022/09/19 19:14:56;;;;;;;2.70;0.95;;;;;;;12.26;100.00;96368.78;10340198;28;97078;-61
2022/09/19 19:20:00;;;;;;;2.07;0.73;;;;;;;12.16;100.00;96362.84;10349033;28;97721;-61
2022/09/19 19:25:03;;;;;;;0.70;0.50;;;;;;;12.08;100.00;96368.84;10361942;28;97682;-61
2022/09/19 19:30:07;;;;;;;0.90;0.70;;;;;;;11.98;100.00;96366.31;10343817;28;97346;-61
2022/09/19 19:35:11;;;;;;;2.25;0.85;;;;;;;11.99;100.00;96377.59;10335354;28;96884;-61
2022/09/19 19:40:18;;;;;;;0.93;0.60;;;;;;;11.99;100.00;96378.47;10332010;28;96818;-61
2022/09/19 19:45:21;;;;;;;1.67;0.82;;;;;;;11.92;100.00;96377.44;10341477;28;96725;-60
2022/09/19 19:50:25;;;;;;;1.80;0.95;;;;;;;11.90;100.00;96381.97;10335464;28;96886;-60
2022/09/19 19:55:28;;;;;;;2.50;1.02;;;;;;;11.90;100.00;96379.34;10352224;28;97084;-60
2022/09/19 20:00:31;;;;;;;1.17;0.60;;;;;;;11.86;100.00;96380.63;10341839;28;98109;-60
2022/09/19 20:05:35;;;;;;;2.13;0.80;;;;;;;11.86;100.00;96384.06;10339639;28;96786;-61
2022/09/19 20:10:38;;;;;;;1.85;0.65;;;;;;;11.81;100.00;96381.09;10338984;28;97855;-60
2022/09/19 20:15:41;;;;;;;1.13;0.57;;;;;;;11.79;100.00;96385.66;10329384;28;98086;-61
2022/09/19 20:20:45;;;;;;;2.08;0.60;;;;;;;11.79;100.00;96387.47;10337743;28;97099;-61
2022/09/19 20:25:49;;;;;;;1.27;0.60;;;;;;;11.74;100.00;96377.44;10335283;28;98697;-60
2022/09/19 20:30:51;;;;;;;3.08;0.80;;;;;;;11.71;100.00;96382.97;10333699;28;97212;-61
2022/09/19 20:35:58;;;;;;;4.00;0.70;;;;;;;11.74;100.00;96380.91;10315618;28;98653;-61
2022/09/19 20:41:07;;;;;;;2.05;0.75;;;;;;;11.68;100.00;96378.06;10327218;28;97905;-61
2022/09/19 20:46:14;;;;;;;1.67;0.57;;;;;;;11.65;100.00;96373.94;10334482;28;97390;-60
2022/09/19 20:51:20;;;;;;;2.60;0.80;;;;;;;11.62;100.00;96376.03;10325283;28;97819;-61
2022/09/19 20:56:25;;;;;;;0.50;0.40;;;;;;;11.60;100.00;96384.03;10328538;28;98688;-60
2022/09/19 21:01:32;;;;;;;3.03;0.70;;;;;;;11.58;100.00;96380.75;10337052;28;97362;-61
2022/09/19 21:06:36;;;;;;;0.77;0.57;;;;;;;11.51;100.00;96384.94;10333477;28;98102;-60
2022/09/19 21:11:39;;;;;;;1.95;1.08;;;;;;;11.48;100.00;96378.19;10326711;28;96803;-61
2022/09/19 21:16:41;;;;;;;0.82;0.75;;;;;;;11.48;100.00;96387.84;10334093;28;96845;-61
2022/09/19 21:21:46;;;;;;;0.88;0.52;;;;;;;11.41;100.00;96395.47;10337322;28;97156;-61
2022/09/19 21:26:48;;;;;;;0.60;0.55;;;;;;;11.38;100.00;96400.16;10332822;28;97455;-59
2022/09/19 21:31:51;;;;;;;5.45;3.25;;;;;;;11.35;100.00;96399.50;10331272;28;97734;-60
2022/09/19 21:36:55;;;;;;;3.38;0.70;;;;;;;11.29;100.00;96402.66;10331634;28;98731;-61
2022/09/19 21:41:58;;;;;;;4.65;1.23;;;;;;;11.24;100.00;96396.25;10321202;28;97295;-59
2022/09/19 21:47:01;;;;;;;1.15;0.70;;;;;;;11.22;100.00;96406.84;10338288;28;97084;-62
2022/09/19 21:52:05;;;;;;;2.35;0.60;;;;;;;11.12;100.00;96403.47;10338953;28;96806;-61
2022/09/19 21:57:08;;;;;;;1.63;0.80;;;;;;;11.10;100.00;96402.78;10311085;28;98123;-62
2022/09/19 22:02:11;;;;;;;2.25;0.90;;;;;;;11.00;100.00;96395.03;10320298;28;97704;-64
2022/09/19 22:07:18;;;;;;;1.05;0.40;;;;;;;11.06;100.00;96409.28;10322485;28;98819;-62
2022/09/19 22:12:21;;;;;;;1.70;0.80;;;;;;;11.02;100.00;96415.81;10319905;28;97112;-63
2022/09/19 22:17:24;;;;;;;1.13;0.70;;;;;;;10.96;100.00;96412.78;10348412;28;97192;-64
2022/09/19 22:22:28;;;;;;;0.98;0.60;;;;;;;10.88;100.00;96415.31;10328605;28;97725;-62
2022/09/19 22:27:31;;;;;;;2.73;0.73;;;;;;;10.80;100.00;96421.25;10346617;28;96888;-63
2022/09/19 22:32:33;;;;;;;2.35;0.77;;;;;;;10.73;100.00;96419.38;10335968;28;96944;-62
2022/09/19 22:37:38;;;;;;;1.08;0.55;;;;;;;10.68;100.00;96414.56;10321340;28;96931;-63
2022/09/19 22:42:40;;;;;;;1.53;0.70;;;;;;;10.58;100.00;96414.63;10302929;28;96958;-62
2022/09/19 22:47:44;;;;;;;2.70;0.82;;;;;;;10.54;100.00;96417.66;10335528;28;98130;-63
2022/09/19 22:52:48;;;;;;;3.42;0.80;;;;;;;10.47;100.00;96420.00;10334350;28;96952;-63
2022/09/19 22:57:51;;;;;;;1.70;0.70;;;;;;;10.36;100.00;96421.00;10352726;28;96933;-62
2022/09/19 23:02:54;;;;;;;2.00;0.82;;;;;;;10.27;100.00;96421.03;10345607;28;96753;-62
2022/09/19 23:07:58;;;;;;;3.30;0.68;;;;;;;10.13;100.00;96425.75;10326020;28;96744;-62
2022/09/19 23:18:17;;;;;;;2.75;0.80;;;;;;;9.76;100.00;96429.06;10330088;28;97437;-62
2022/09/19 23:23:22;;;;;;;0.70;0.60;;;;;;;9.63;100.00;96434.56;10336847;28;96906;-63
2022/09/19 23:28:24;;;;;;;1.50;0.47;;;;;;;9.37;100.00;96429.03;10337353;28;97311;-63
2022/09/19 23:33:28;;;;;;;4.25;1.20;;;;;;;9.26;100.00;96427.38;10338123;28;97002;-62
2022/09/19 23:38:33;;;;;;;1.55;0.55;;;;;;;9.01;100.00;96430.47;10335178;28;96894;-62
2022/09/19 23:43:36;;;;;;;3.65;0.65;;;;;;;8.94;100.00;96432.78;10335575;28;96789;-62
2022/09/19 23:48:40;;;;;;;2.67;0.90;;;;;;;8.65;100.00;96407.44;10335912;28;98482;-62
2022/09/19 23:53:45;;;;;;;3.25;1.13;;;;;;;8.23;100.00;96381.50;10334573;28;97288;-63
2022/09/19 23:58:48;;;;;;;2.25;0.80;;;;;;;8.39;100.00;96427.06;10338447;28;97302;-63
